sensor_id;sensor_type;location;lat;lon;timestamp;pressure;altitude;pressure_sealevel;temperature;humidity
34983;BME280;21187;50.976;13.720;2023-03-25T00:03:11;97228.34;;;12.95;49.88
34983;BME280;21187;50.976;13.720;2023-03-25T00:08:13;97219.41;;;12.87;50.07
34983;BME280;21187;50.976;13.720;2023-03-25T00:13:15;97217.88;;;12.90;49.87
34983;BME280;21187;50.976;13.720;2023-03-25T00:18:16;97210.50;;;12.83;49.83
34983;BME280;21187;50.976;13.720;2023-03-25T00:23:20;97205.47;;;12.81;49.71
34983;BME280;21187;50.976;13.720;2023-03-25T00:28:21;97201.19;;;12.80;49.77
34983;BME280;21187;50.976;13.720;2023-03-25T00:33:26;97194.19;;;12.79;49.78
34983;BME280;21187;50.976;13.720;2023-03-25T00:38:29;97198.06;;;13.00;48.99
34983;BME280;21187;50.976;13.720;2023-03-25T00:43:36;97196.53;;;12.85;49.24
34983;BME280;21187;50.976;13.720;2023-03-25T00:48:37;97200.41;;;12.76;49.80
34983;BME280;21187;50.976;13.720;2023-03-25T00:53:40;97205.84;;;12.73;49.72
34983;BME280;21187;50.976;13.720;2023-03-25T00:58:43;97201.56;;;12.75;49.65
34983;BME280;21187;50.976;13.720;2023-03-25T01:03:45;97193.41;;;12.72;49.65
34983;BME280;21187;50.976;13.720;2023-03-25T01:08:47;97198.06;;;12.71;49.53
34983;BME280;21187;50.976;13.720;2023-03-25T01:13:49;97191.47;;;12.65;49.77
34983;BME280;21187;50.976;13.720;2023-03-25T01:18:53;97187.97;;;12.61;49.50
34983;BME280;21187;50.976;13.720;2023-03-25T01:23:55;97180.22;;;12.56;50.04
34983;BME280;21187;50.976;13.720;2023-03-25T01:28:57;97178.28;;;12.53;50.16
34983;BME280;21187;50.976;13.720;2023-03-25T01:33:59;97163.13;;;12.52;50.04
34983;BME280;21187;50.976;13.720;2023-03-25T01:39:03;97150.72;;;12.51;50.25
34983;BME280;21187;50.976;13.720;2023-03-25T01:44:08;97153.84;;;12.53;50.40
34983;BME280;21187;50.976;13.720;2023-03-25T01:49:38;97138.31;;;12.53;50.57
34983;BME280;21187;50.976;13.720;2023-03-25T01:54:46;97128.22;;;12.54;50.70
34983;BME280;21187;50.976;13.720;2023-03-25T01:59:49;97122.00;;;12.64;50.44
34983;BME280;21187;50.976;13.720;2023-03-25T02:04:56;97120.44;;;12.70;50.29
34983;BME280;21187;50.976;13.720;2023-03-25T02:10:05;97118.91;;;12.73;50.00
34983;BME280;21187;50.976;13.720;2023-03-25T02:15:08;97120.47;;;12.74;49.81
34983;BME280;21187;50.976;13.720;2023-03-25T02:20:23;97108.03;;;12.76;49.35
34983;BME280;21187;50.976;13.720;2023-03-25T02:46:45;97090.16;;;12.82;49.30
34983;BME280;21187;50.976;13.720;2023-03-25T02:51:53;97097.16;;;12.84;49.39
34983;BME280;21187;50.976;13.720;2023-03-25T02:56:58;97097.16;;;12.84;49.45
34983;BME280;21187;50.976;13.720;2023-03-25T03:02:04;97095.59;;;12.82;49.20
34983;BME280;21187;50.976;13.720;2023-03-25T03:07:10;97098.69;;;12.77;49.19
34983;BME280;21187;50.976;13.720;2023-03-25T03:18:12;97090.97;;;12.65;49.40
34983;BME280;21187;50.976;13.720;2023-03-25T03:23:33;97090.97;;;12.58;49.44
34983;BME280;21187;50.976;13.720;2023-03-25T03:28:47;97089.41;;;12.49;49.70
34983;BME280;21187;50.976;13.720;2023-03-25T03:34:00;97092.53;;;12.52;49.63
34983;BME280;21187;50.976;13.720;2023-03-25T03:39:22;97080.88;;;12.40;49.81
34983;BME280;21187;50.976;13.720;2023-03-25T03:44:29;97097.19;;;12.40;49.40
34983;BME280;21187;50.976;13.720;2023-03-25T03:50:10;97103.38;;;12.44;49.47
34983;BME280;21187;50.976;13.720;2023-03-25T03:55:22;97106.09;;;12.48;49.12
34983;BME280;21187;50.976;13.720;2023-03-25T04:00:38;97110.75;;;12.55;49.02
34983;BME280;21187;50.976;13.720;2023-03-25T04:05:48;97108.41;;;12.49;49.16
34983;BME280;21187;50.976;13.720;2023-03-25T04:10:56;97113.47;;;12.44;49.37
34983;BME280;21187;50.976;13.720;2023-03-25T04:16:00;97110.75;;;12.40;49.12
34983;BME280;21187;50.976;13.720;2023-03-25T04:21:03;97119.28;;;12.42;49.14
34983;BME280;21187;50.976;13.720;2023-03-25T04:26:05;97120.47;;;12.34;49.52
34983;BME280;21187;50.976;13.720;2023-03-25T04:31:15;97110.75;;;12.33;49.76
34983;BME280;21187;50.976;13.720;2023-03-25T04:36:17;97125.88;;;12.30;49.67
34983;BME280;21187;50.976;13.720;2023-03-25T04:41:19;97128.59;;;12.27;49.96
34983;BME280;21187;50.976;13.720;2023-03-25T04:46:20;97126.25;;;12.22;50.09
34983;BME280;21187;50.976;13.720;2023-03-25T04:51:22;97135.97;;;12.15;50.17
34983;BME280;21187;50.976;13.720;2023-03-25T04:56:24;97135.97;;;12.15;50.10
34983;BME280;21187;50.976;13.720;2023-03-25T05:01:27;97130.16;;;12.21;49.77
34983;BME280;21187;50.976;13.720;2023-03-25T05:06:34;97122.38;;;12.23;49.66
34983;BME280;21187;50.976;13.720;2023-03-25T05:11:39;97128.97;;;12.22;49.50
34983;BME280;21187;50.976;13.720;2023-03-25T05:16:42;97124.72;;;12.21;49.29
34983;BME280;21187;50.976;13.720;2023-03-25T05:21:45;97129.34;;;12.17;49.69
34983;BME280;21187;50.976;13.720;2023-03-25T05:26:47;97131.28;;;12.12;49.63
34983;BME280;21187;50.976;13.720;2023-03-25T05:31:48;97132.84;;;12.06;49.07
34983;BME280;21187;50.976;13.720;2023-03-25T05:36:50;97142.88;;;12.02;48.75
34983;BME280;21187;50.976;13.720;2023-03-25T05:41:54;97142.09;;;11.98;48.20
34983;BME280;21187;50.976;13.720;2023-03-25T05:46:56;97137.47;;;11.95;47.56
34983;BME280;21187;50.976;13.720;2023-03-25T05:52:02;97129.66;;;11.82;47.38
34983;BME280;21187;50.976;13.720;2023-03-25T05:57:04;97143.53;;;11.70;47.22
34983;BME280;21187;50.976;13.720;2023-03-25T06:02:08;97148.19;;;11.70;47.27
34983;BME280;21187;50.976;13.720;2023-03-25T06:07:13;97148.94;;;11.63;47.35
34983;BME280;21187;50.976;13.720;2023-03-25T06:12:21;97171.81;;;11.62;47.77
34983;BME280;21187;50.976;13.720;2023-03-25T06:17:24;97167.50;;;11.54;48.76
34983;BME280;21187;50.976;13.720;2023-03-25T06:22:26;97183.38;;;11.52;48.78
34983;BME280;21187;50.976;13.720;2023-03-25T06:27:27;97189.19;;;11.50;48.96
34983;BME280;21187;50.976;13.720;2023-03-25T06:32:29;97200.78;;;11.51;49.31
34983;BME280;21187;50.976;13.720;2023-03-25T06:37:32;97193.78;;;11.42;49.03
34983;BME280;21187;50.976;13.720;2023-03-25T06:42:38;97203.13;;;11.48;49.08
34983;BME280;21187;50.976;13.720;2023-03-25T06:48:03;97210.19;;;11.64;48.90
34983;BME280;21187;50.976;13.720;2023-03-25T06:53:06;97203.69;;;11.94;48.33
34983;BME280;21187;50.976;13.720;2023-03-25T06:58:07;97202.25;;;12.14;47.40
34983;BME280;21187;50.976;13.720;2023-03-25T07:03:09;97191.03;;;12.30;47.02
34983;BME280;21187;50.976;13.720;2023-03-25T07:08:11;97189.50;;;12.40;46.38
34983;BME280;21187;50.976;13.720;2023-03-25T07:13:13;97182.53;;;12.46;45.90
34983;BME280;21187;50.976;13.720;2023-03-25T07:18:15;97198.06;;;12.60;45.56
34983;BME280;21187;50.976;13.720;2023-03-25T07:23:17;97190.31;;;12.80;44.84
34983;BME280;21187;50.976;13.720;2023-03-25T07:28:19;97202.75;;;12.96;44.37
34983;BME280;21187;50.976;13.720;2023-03-25T07:33:21;97199.63;;;12.94;44.62
34983;BME280;21187;50.976;13.720;2023-03-25T07:38:23;97208.94;;;13.00;44.68
34983;BME280;21187;50.976;13.720;2023-03-25T07:43:25;97206.59;;;13.02;44.34
34983;BME280;21187;50.976;13.720;2023-03-25T07:48:37;97217.47;;;13.02;44.72
34983;BME280;21187;50.976;13.720;2023-03-25T07:53:38;97211.25;;;12.84;44.66
34983;BME280;21187;50.976;13.720;2023-03-25T07:58:43;97216.66;;;12.55;45.59
34983;BME280;21187;50.976;13.720;2023-03-25T08:03:46;97228.31;;;12.41;47.25
34983;BME280;21187;50.976;13.720;2023-03-25T08:08:48;97220.53;;;12.39;48.05
34983;BME280;21187;50.976;13.720;2023-03-25T08:13:49;97225.97;;;12.39;48.37
34983;BME280;21187;50.976;13.720;2023-03-25T08:18:51;97222.47;;;12.42;48.47
34983;BME280;21187;50.976;13.720;2023-03-25T08:23:54;97213.56;;;12.45;48.83
34983;BME280;21187;50.976;13.720;2023-03-25T08:29:03;97232.19;;;12.43;49.09
34983;BME280;21187;50.976;13.720;2023-03-25T08:34:06;97248.41;;;12.22;50.21
34983;BME280;21187;50.976;13.720;2023-03-25T08:39:07;97249.81;;;11.94;51.05
34983;BME280;21187;50.976;13.720;2023-03-25T08:44:12;97241.91;;;11.60;52.03
34983;BME280;21187;50.976;13.720;2023-03-25T08:49:14;97252.66;;;11.45;52.41
34983;BME280;21187;50.976;13.720;2023-03-25T08:54:16;97257.94;;;11.24;52.75
34983;BME280;21187;50.976;13.720;2023-03-25T08:59:18;97258.59;;;11.06;53.30
34983;BME280;21187;50.976;13.720;2023-03-25T09:04:20;97260.09;;;11.00;54.37
34983;BME280;21187;50.976;13.720;2023-03-25T09:09:22;97263.94;;;10.99;54.64
34983;BME280;21187;50.976;13.720;2023-03-25T09:14:24;97273.94;;;10.91;55.07
34983;BME280;21187;50.976;13.720;2023-03-25T09:19:26;97278.25;;;10.96;54.94
34983;BME280;21187;50.976;13.720;2023-03-25T09:24:28;97295.66;;;10.95;55.51
34983;BME280;21187;50.976;13.720;2023-03-25T09:29:29;97279.22;;;10.73;56.02
34983;BME280;21187;50.976;13.720;2023-03-25T09:34:31;97276.09;;;10.71;56.36
34983;BME280;21187;50.976;13.720;2023-03-25T09:39:33;97271.47;;;10.72;56.29
34983;BME280;21187;50.976;13.720;2023-03-25T09:50:02;97257.69;;;10.88;57.02
34983;BME280;21187;50.976;13.720;2023-03-25T09:55:10;97257.84;;;11.09;56.86
34983;BME280;21187;50.976;13.720;2023-03-25T10:00:21;97261.91;;;11.37;56.43
34983;BME280;21187;50.976;13.720;2023-03-25T10:11:28;97240.13;;;11.93;55.56
34983;BME280;21187;50.976;13.720;2023-03-25T10:27:01;97235.34;;;12.81;52.98
34983;BME280;21187;50.976;13.720;2023-03-25T10:32:31;97227.56;;;13.16;50.99
34983;BME280;21187;50.976;13.720;2023-03-25T10:37:36;97227.53;;;13.48;50.07
34983;BME280;21187;50.976;13.720;2023-03-25T10:43:30;97216.56;;;13.81;48.87
34983;BME280;21187;50.976;13.720;2023-03-25T10:48:19;97224.28;;;14.01;47.83
34983;BME280;21187;50.976;13.720;2023-03-25T10:53:24;97210.31;;;13.91;46.45
34983;BME280;21187;50.976;13.720;2023-03-25T10:58:29;97218.91;;;13.79;46.93
34983;BME280;21187;50.976;13.720;2023-03-25T11:03:33;97191.72;;;13.68;45.05
34983;BME280;21187;50.976;13.720;2023-03-25T11:08:35;97197.47;;;13.92;45.02
34983;BME280;21187;50.976;13.720;2023-03-25T11:13:37;97203.09;;;14.30;44.75
34983;BME280;21187;50.976;13.720;2023-03-25T11:18:42;97186.25;;;14.50;44.06
34983;BME280;21187;50.976;13.720;2023-03-25T11:23:49;97185.03;;;14.58;43.43
34983;BME280;21187;50.976;13.720;2023-03-25T11:29:00;97184.84;;;14.87;43.07
34983;BME280;21187;50.976;13.720;2023-03-25T11:44:30;97210.72;;;14.64;41.45
34983;BME280;21187;50.976;13.720;2023-03-25T11:49:35;97176.63;;;14.34;41.95
34983;BME280;21187;50.976;13.720;2023-03-25T11:54:41;97171.16;;;14.38;42.53
34983;BME280;21187;50.976;13.720;2023-03-25T11:59:47;97166.75;;;14.55;41.69
34983;BME280;21187;50.976;13.720;2023-03-25T12:05:12;97157.03;;;14.54;42.04
34983;BME280;21187;50.976;13.720;2023-03-25T12:15:38;97136.53;;;14.87;40.72
34983;BME280;21187;50.976;13.720;2023-03-25T12:20:50;97137.06;;;15.17;40.30
34983;BME280;21187;50.976;13.720;2023-03-25T12:26:08;97135.19;;;15.44;39.81
34983;BME280;21187;50.976;13.720;2023-03-25T12:41:41;97113.66;;;15.54;37.72
34983;BME280;21187;50.976;13.720;2023-03-25T12:46:54;97113.13;;;15.62;38.49
34983;BME280;21187;50.976;13.720;2023-03-25T12:52:19;97111.81;;;15.43;39.02
34983;BME280;21187;50.976;13.720;2023-03-25T13:08:20;97141.25;;;13.60;45.42
34983;BME280;21187;50.976;13.720;2023-03-25T13:13:25;97142.50;;;13.41;45.98
34983;BME280;21187;50.976;13.720;2023-03-25T13:18:30;97126.13;;;13.52;46.63
34983;BME280;21187;50.976;13.720;2023-03-25T13:23:35;97117.75;;;13.95;45.81
34983;BME280;21187;50.976;13.720;2023-03-25T13:28:42;97101.53;;;14.33;44.69
34983;BME280;21187;50.976;13.720;2023-03-25T13:34:15;97089.25;;;14.59;43.79
34983;BME280;21187;50.976;13.720;2023-03-25T13:39:24;97081.78;;;14.74;42.33
34983;BME280;21187;50.976;13.720;2023-03-25T13:44:33;97082.00;;;14.91;42.12
34983;BME280;21187;50.976;13.720;2023-03-25T13:49:42;97093.19;;;15.00;40.38
34983;BME280;21187;50.976;13.720;2023-03-25T13:54:55;97083.09;;;14.97;40.77
34983;BME280;21187;50.976;13.720;2023-03-25T14:05:28;97094.66;;;15.08;39.73
34983;BME280;21187;50.976;13.720;2023-03-25T14:26:21;97063.03;;;15.14;39.20
34983;BME280;21187;50.976;13.720;2023-03-25T14:31:31;97069.34;;;15.42;37.50
34983;BME280;21187;50.976;13.720;2023-03-25T14:41:56;97112.72;;;14.95;38.53
34983;BME280;21187;50.976;13.720;2023-03-25T14:52:43;97166.72;;;11.49;48.63
34983;BME280;21187;50.976;13.720;2023-03-25T14:57:46;97154.41;;;10.93;49.96
34983;BME280;21187;50.976;13.720;2023-03-25T15:02:58;97143.13;;;10.84;50.13
34983;BME280;21187;50.976;13.720;2023-03-25T15:08:15;97137.19;;;10.67;50.46
34983;BME280;21187;50.976;13.720;2023-03-25T15:13:29;97121.34;;;10.73;50.39
34983;BME280;21187;50.976;13.720;2023-03-25T15:29:00;97108.03;;;12.19;45.49
34983;BME280;21187;50.976;13.720;2023-03-25T15:50:10;97130.56;;;12.70;41.71
34983;BME280;21187;50.976;13.720;2023-03-25T15:55:28;97124.34;;;12.55;41.86
34983;BME280;21187;50.976;13.720;2023-03-25T16:00:36;97135.59;;;12.53;42.09
34983;BME280;21187;50.976;13.720;2023-03-25T16:05:45;97143.72;;;12.35;42.31
34983;BME280;21187;50.976;13.720;2023-03-25T16:10:48;97152.25;;;12.23;42.69
34983;BME280;21187;50.976;13.720;2023-03-25T16:15:53;97151.09;;;12.24;42.59
34983;BME280;21187;50.976;13.720;2023-03-25T16:21:00;97156.13;;;12.29;43.15
34983;BME280;21187;50.976;13.720;2023-03-25T16:26:04;97154.56;;;12.28;43.03
34983;BME280;21187;50.976;13.720;2023-03-25T16:31:26;97158.44;;;12.27;43.34
34983;BME280;21187;50.976;13.720;2023-03-25T16:36:28;97160.41;;;12.30;43.29
34983;BME280;21187;50.976;13.720;2023-03-25T16:41:30;97160.78;;;12.25;43.51
34983;BME280;21187;50.976;13.720;2023-03-25T16:46:32;97164.25;;;12.22;43.41
34983;BME280;21187;50.976;13.720;2023-03-25T16:51:34;97159.97;;;12.10;43.61
34983;BME280;21187;50.976;13.720;2023-03-25T16:56:38;97164.59;;;12.02;43.72
34983;BME280;21187;50.976;13.720;2023-03-25T17:01:42;97149.06;;;11.92;44.17
34983;BME280;21187;50.976;13.720;2023-03-25T17:06:59;97151.34;;;11.79;44.67
34983;BME280;21187;50.976;13.720;2023-03-25T17:12:07;97155.16;;;11.67;44.95
34983;BME280;21187;50.976;13.720;2023-03-25T17:17:39;97154.34;;;11.59;45.16
34983;BME280;21187;50.976;13.720;2023-03-25T17:23:06;97150.09;;;11.55;45.54
34983;BME280;21187;50.976;13.720;2023-03-25T17:38:39;97169.03;;;11.47;45.66
34983;BME280;21187;50.976;13.720;2023-03-25T17:43:50;97165.47;;;11.36;46.19
34983;BME280;21187;50.976;13.720;2023-03-25T17:48:55;97166.66;;;11.35;46.14
34983;BME280;21187;50.976;13.720;2023-03-25T17:54:00;97177.06;;;11.33;46.16
34983;BME280;21187;50.976;13.720;2023-03-25T17:59:05;97161.16;;;11.28;46.38
34983;BME280;21187;50.976;13.720;2023-03-25T18:04:09;97171.28;;;11.31;46.33
34983;BME280;21187;50.976;13.720;2023-03-25T18:09:18;97171.28;;;11.31;46.46
34983;BME280;21187;50.976;13.720;2023-03-25T18:14:22;97162.72;;;11.25;46.62
34983;BME280;21187;50.976;13.720;2023-03-25T18:19:26;97180.53;;;11.26;46.17
34983;BME280;21187;50.976;13.720;2023-03-25T18:24:29;97185.19;;;11.26;46.77
34983;BME280;21187;50.976;13.720;2023-03-25T18:29:31;97195.97;;;11.19;46.88
34983;BME280;21187;50.976;13.720;2023-03-25T18:34:32;97195.16;;;11.14;46.86
34983;BME280;21187;50.976;13.720;2023-03-25T18:39:35;97204.44;;;11.13;47.07
34983;BME280;21187;50.976;13.720;2023-03-25T18:44:36;97213.00;;;11.15;47.15
34983;BME280;21187;50.976;13.720;2023-03-25T18:49:39;97216.47;;;11.16;46.98
34983;BME280;21187;50.976;13.720;2023-03-25T18:54:41;97209.13;;;11.20;47.33
34983;BME280;21187;50.976;13.720;2023-03-25T18:59:43;97201.78;;;11.21;47.52
34983;BME280;21187;50.976;13.720;2023-03-25T19:04:45;97206.84;;;11.22;48.19
34983;BME280;21187;50.976;13.720;2023-03-25T19:10:01;97197.56;;;11.27;47.63
34983;BME280;21187;50.976;13.720;2023-03-25T19:15:03;97200.69;;;11.29;48.22
34983;BME280;21187;50.976;13.720;2023-03-25T19:20:06;97194.50;;;11.32;47.84
34983;BME280;21187;50.976;13.720;2023-03-25T19:25:08;97202.25;;;11.33;48.19
34983;BME280;21187;50.976;13.720;2023-03-25T19:30:13;97186.78;;;11.41;47.84
34983;BME280;21187;50.976;13.720;2023-03-25T19:35:17;97192.97;;;11.35;48.13
34983;BME280;21187;50.976;13.720;2023-03-25T19:40:22;97204.97;;;11.37;47.82
34983;BME280;21187;50.976;13.720;2023-03-25T19:45:25;97209.25;;;11.38;47.96
34983;BME280;21187;50.976;13.720;2023-03-25T19:50:30;97223.59;;;11.42;47.65
34983;BME280;21187;50.976;13.720;2023-03-25T19:55:32;97239.09;;;11.45;47.99
34983;BME280;21187;50.976;13.720;2023-03-25T20:00:34;97245.00;;;11.55;47.57
34983;BME280;21187;50.976;13.720;2023-03-25T20:05:36;97265.16;;;11.61;48.04
34983;BME280;21187;50.976;13.720;2023-03-25T20:10:38;97221.59;;;11.32;49.75
34983;BME280;21187;50.976;13.720;2023-03-25T20:15:41;97216.78;;;11.04;50.66
34983;BME280;21187;50.976;13.720;2023-03-25T20:20:44;97201.13;;;10.82;51.31
34983;BME280;21187;50.976;13.720;2023-03-25T20:25:48;97190.94;;;10.69;51.79
34983;BME280;21187;50.976;13.720;2023-03-25T20:30:51;97191.66;;;10.62;51.63
34983;BME280;21187;50.976;13.720;2023-03-25T20:35:53;97199.41;;;10.60;51.30
34983;BME280;21187;50.976;13.720;2023-03-25T20:40:55;97210.16;;;10.53;51.40
34983;BME280;21187;50.976;13.720;2023-03-25T20:45:57;97209.44;;;10.56;51.41
34983;BME280;21187;50.976;13.720;2023-03-25T20:51:04;97183.88;;;10.57;51.01
34983;BME280;21187;50.976;13.720;2023-03-25T20:56:06;97167.53;;;10.42;51.69
34983;BME280;21187;50.976;13.720;2023-03-25T21:01:09;97161.94;;;10.28;52.74
34983;BME280;21187;50.976;13.720;2023-03-25T21:06:12;97161.88;;;10.21;52.34
34983;BME280;21187;50.976;13.720;2023-03-25T21:11:21;97170.34;;;10.15;53.12
34983;BME280;21187;50.976;13.720;2023-03-25T21:16:23;97170.34;;;10.15;53.11
34983;BME280;21187;50.976;13.720;2023-03-25T21:21:25;97165.00;;;10.23;53.20
34983;BME280;21187;50.976;13.720;2023-03-25T21:26:27;97179.75;;;10.29;53.21
34983;BME280;21187;50.976;13.720;2023-03-25T21:31:29;97171.28;;;10.34;53.26
34983;BME280;21187;50.976;13.720;2023-03-25T21:36:32;97170.97;;;10.39;53.07
34983;BME280;21187;50.976;13.720;2023-03-25T21:41:34;97167.19;;;10.47;52.56
34983;BME280;21187;50.976;13.720;2023-03-25T21:46:36;97169.97;;;10.55;53.01
34983;BME280;21187;50.976;13.720;2023-03-25T21:51:38;97158.38;;;10.58;52.53
34983;BME280;21187;50.976;13.720;2023-03-25T21:56:43;97159.19;;;10.62;52.78
34983;BME280;21187;50.976;13.720;2023-03-25T22:01:45;97165.81;;;10.68;51.70
34983;BME280;21187;50.976;13.720;2023-03-25T22:06:47;97178.59;;;10.71;51.55
34983;BME280;21187;50.976;13.720;2023-03-25T22:11:49;97176.69;;;10.75;51.19
34983;BME280;21187;50.976;13.720;2023-03-25T22:16:54;97160.88;;;10.81;50.98
34983;BME280;21187;50.976;13.720;2023-03-25T22:21:56;97168.66;;;10.86;50.76
34983;BME280;21187;50.976;13.720;2023-03-25T22:26:58;97176.41;;;10.91;50.50
34983;BME280;21187;50.976;13.720;2023-03-25T22:32:00;97170.22;;;10.91;50.00
34983;BME280;21187;50.976;13.720;2023-03-25T22:37:07;97179.91;;;10.92;50.07
34983;BME280;21187;50.976;13.720;2023-03-25T22:42:09;97166.38;;;10.92;49.94
34983;BME280;21187;50.976;13.720;2023-03-25T22:47:11;97160.97;;;10.92;49.56
34983;BME280;21187;50.976;13.720;2023-03-25T22:52:13;97171.38;;;10.90;49.99
34983;BME280;21187;50.976;13.720;2023-03-25T22:57:16;97158.59;;;10.87;50.35
34983;BME280;21187;50.976;13.720;2023-03-25T23:02:18;97166.31;;;10.85;50.63
34983;BME280;21187;50.976;13.720;2023-03-25T23:07:20;97158.53;;;10.79;50.69
34983;BME280;21187;50.976;13.720;2023-03-25T23:12:25;97161.19;;;10.72;50.90
34983;BME280;21187;50.976;13.720;2023-03-25T23:17:27;97170.00;;;10.62;51.50
34983;BME280;21187;50.976;13.720;2023-03-25T23:22:29;97156.81;;;10.57;51.37
34983;BME280;21187;50.976;13.720;2023-03-25T23:27:31;97157.94;;;10.52;51.54
34983;BME280;21187;50.976;13.720;2023-03-25T23:32:34;97160.56;;;10.41;51.47
34983;BME280;21187;50.976;13.720;2023-03-25T23:37:36;97152.78;;;10.36;52.08
34983;BME280;21187;50.976;13.720;2023-03-25T23:42:38;97170.47;;;10.30;52.07
34983;BME280;21187;50.976;13.720;2023-03-25T23:47:40;97157.66;;;10.23;52.04
34983;BME280;21187;50.976;13.720;2023-03-25T23:52:42;97166.53;;;10.24;52.50
34983;BME280;21187;50.976;13.720;2023-03-25T23:57:43;97169.66;;;10.26;52.25
